Time;durP1;ratioP1;P1;durP2;ratioP2;P2;SDS_P1;SDS_P2;PMS_P1;PMS_P2;Temp;Humidity;BMP_temperature;BMP_pressure;BME280_temperature;BME280_humidity;BME280_pressure;Samples;Min_cycle;Max_cycle;Signal;HPM_P1;HPM_P2
2023/05/15 00:00:39;;;;;;;4.07;3.47;;;;;;;11.63;83.62;97323.28;10432748;28;20142;-68
2023/05/15 00:06:04;;;;;;;5.22;4.25;;;;;;;11.60;83.86;97322.44;10446872;28;20044;-69
2023/05/15 00:11:26;;;;;;;4.72;4.05;;;;;;;11.61;83.98;97321.09;10460958;28;20120;-68
2023/05/15 00:16:47;;;;;;;6.38;4.75;;;;;;;11.54;84.01;97313.72;10446197;28;20108;-68
2023/05/15 00:22:07;;;;;;;4.75;4.00;;;;;;;11.52;83.93;97299.63;10445747;28;20121;-68
2023/05/15 00:27:28;;;;;;;6.28;4.13;;;;;;;11.56;84.05;97301.91;10444676;28;20124;-68
2023/05/15 00:32:49;;;;;;;5.15;3.83;;;;;;;11.55;83.76;97290.00;10460132;28;20079;-68
2023/05/15 00:38:10;;;;;;;5.65;3.65;;;;;;;11.55;84.15;97284.41;10445323;28;20458;-68
2023/05/15 00:43:31;;;;;;;4.70;3.58;;;;;;;11.49;84.02;97274.97;10444704;28;20043;-67
2023/05/15 00:48:51;;;;;;;4.07;3.17;;;;;;;11.40;83.86;97282.16;10430781;28;20068;-68
2023/05/15 00:54:12;;;;;;;4.72;3.20;;;;;;;11.41;84.38;97278.03;10430321;28;20107;-68
2023/05/15 00:59:35;;;;;;;5.43;3.58;;;;;;;11.42;84.32;97273.91;10444064;28;20533;-68
2023/05/15 01:04:55;;;;;;;4.93;3.75;;;;;;;11.43;84.18;97264.91;10415993;28;20124;-68
2023/05/15 01:10:16;;;;;;;8.65;3.75;;;;;;;11.40;84.20;97260.53;10429955;28;20065;-68
2023/05/15 01:15:37;;;;;;;4.57;3.47;;;;;;;11.45;84.34;97264.28;10415926;28;20117;-68
2023/05/15 01:21:01;;;;;;;5.93;3.00;;;;;;;11.40;83.74;97249.38;10458326;28;20546;-68
2023/05/15 01:26:34;;;;;;;3.70;2.78;;;;;;;11.41;84.05;97250.81;10457992;28;20112;-68
2023/05/15 01:32:01;;;;;;;5.03;3.55;;;;;;;11.41;84.19;97261.25;10442822;28;20128;-68
2023/05/15 01:37:24;;;;;;;7.00;4.00;;;;;;;11.44;84.23;97255.16;10429030;28;20147;-69
2023/05/15 01:42:50;;;;;;;5.90;4.43;;;;;;;11.42;84.18;97248.75;10428654;28;20048;-68
2023/05/15 01:48:11;;;;;;;6.53;4.80;;;;;;;11.42;84.11;97251.53;10428478;28;20143;-68
2023/05/15 01:53:32;;;;;;;8.25;4.95;;;;;;;11.39;84.37;97239.53;10428342;28;20162;-69
2023/05/15 01:58:54;;;;;;;7.22;5.32;;;;;;;11.44;84.38;97232.09;10428213;28;20116;-68
2023/05/15 02:04:14;;;;;;;7.03;5.15;;;;;;;11.42;84.58;97224.31;10428697;28;20163;-68
2023/05/15 02:09:35;;;;;;;6.15;4.90;;;;;;;11.39;84.24;97225.56;10457325;28;20120;-68
2023/05/15 02:14:56;;;;;;;5.10;4.25;;;;;;;11.34;84.19;97211.97;10427969;28;20073;-68
2023/05/15 02:20:16;;;;;;;5.32;3.88;;;;;;;11.32;84.28;97211.84;10441536;28;20172;-68
2023/05/15 02:25:54;;;;;;;5.30;4.40;;;;;;;11.29;84.28;97210.28;10456809;28;20170;-68
2023/05/15 02:31:23;;;;;;;5.93;4.25;;;;;;;11.29;84.58;97201.88;10443729;28;20120;-68
2023/05/15 02:36:46;;;;;;;6.88;4.78;;;;;;;11.30;84.67;97203.38;10414113;28;20120;-68
2023/05/15 02:42:09;;;;;;;6.15;5.18;;;;;;;11.32;84.82;97195.09;10414042;28;20116;-68
2023/05/15 02:47:31;;;;;;;7.82;4.78;;;;;;;11.28;84.54;97186.47;10427227;28;20120;-68
2023/05/15 02:53:00;;;;;;;5.95;4.88;;;;;;;11.26;84.75;97183.56;10460971;28;20044;-68
2023/05/15 02:58:21;;;;;;;6.32;4.93;;;;;;;11.28;84.33;97167.63;10463800;28;20124;-68
2023/05/15 03:03:42;;;;;;;6.68;5.00;;;;;;;11.25;84.58;97170.94;10435209;28;20471;-69
2023/05/15 03:09:02;;;;;;;5.32;4.07;;;;;;;11.26;84.70;97164.72;10448369;28;20072;-69
2023/05/15 03:14:23;;;;;;;6.03;4.60;;;;;;;11.26;84.71;97161.22;10463371;28;20121;-68
2023/05/15 03:19:44;;;;;;;6.15;4.10;;;;;;;11.24;84.98;97153.44;10434473;28;20049;-68
2023/05/15 03:25:05;;;;;;;5.40;4.40;;;;;;;11.20;84.72;97146.94;10448022;28;20080;-69
2023/05/15 03:30:26;;;;;;;6.75;4.80;;;;;;;11.18;84.78;97145.44;10433794;28;20116;-68
2023/05/15 03:35:47;;;;;;;6.55;4.72;;;;;;;11.19;85.06;97143.38;10447708;28;20402;-69
2023/05/15 03:41:07;;;;;;;7.72;6.18;;;;;;;11.10;84.72;97139.44;10419566;28;20125;-68
2023/05/15 03:46:28;;;;;;;6.85;6.00;;;;;;;11.15;84.96;97127.13;10461996;28;20124;-68
2023/05/15 03:51:48;;;;;;;6.57;5.78;;;;;;;11.10;84.88;97119.16;10419376;28;20459;-68
2023/05/15 03:57:09;;;;;;;7.72;5.38;;;;;;;11.07;84.78;97118.31;10419025;28;20061;-68
2023/05/15 04:02:30;;;;;;;6.55;4.82;;;;;;;11.12;85.08;97120.00;10418863;28;20468;-69
2023/05/15 04:07:50;;;;;;;7.15;5.32;;;;;;;11.10;85.07;97111.50;10461108;28;20487;-68
2023/05/15 04:13:11;;;;;;;6.80;4.88;;;;;;;11.16;85.21;97113.91;10432398;28;20056;-68
2023/05/15 04:18:31;;;;;;;6.57;4.85;;;;;;;11.18;84.99;97111.22;10445775;28;20069;-68
2023/05/15 04:23:52;;;;;;;5.00;4.25;;;;;;;11.22;85.16;97105.13;10461058;28;20037;-68
2023/05/15 04:29:13;;;;;;;5.85;4.55;;;;;;;11.27;84.77;97104.72;10445554;28;20064;-68
2023/05/15 04:34:34;;;;;;;5.15;4.30;;;;;;;11.19;84.75;97107.06;10445245;28;20076;-68
2023/05/15 04:39:54;;;;;;;7.95;4.85;;;;;;;11.22;84.76;97105.13;10431246;28;20128;-69
2023/05/15 04:45:15;;;;;;;7.20;4.60;;;;;;;11.23;84.89;97101.00;10445279;28;20155;-69
2023/05/15 04:50:36;;;;;;;6.53;4.07;;;;;;;11.22;84.73;97094.69;10445159;28;20041;-68
2023/05/15 04:55:56;;;;;;;6.18;4.07;;;;;;;11.22;84.71;97097.47;10430531;28;20581;-68
2023/05/15 05:01:17;;;;;;;5.18;3.78;;;;;;;11.22;84.74;97096.75;10443982;28;20118;-68
2023/05/15 05:06:38;;;;;;;5.18;3.42;;;;;;;11.21;84.60;97095.31;10430168;28;20060;-69
2023/05/15 05:12:00;;;;;;;4.70;3.42;;;;;;;11.16;84.94;97091.53;10416372;28;20109;-69
2023/05/15 05:17:21;;;;;;;4.50;3.15;;;;;;;11.16;84.64;97083.16;10429618;28;20112;-68
2023/05/15 05:22:42;;;;;;;4.50;3.03;;;;;;;11.13;84.92;97087.19;10429807;28;20174;-69
2023/05/15 05:28:03;;;;;;;5.30;3.22;;;;;;;11.12;84.67;97082.97;10458077;28;20075;-68
2023/05/15 05:33:23;;;;;;;3.55;2.72;;;;;;;11.22;85.00;97085.56;10429057;28;20065;-68
2023/05/15 05:38:44;;;;;;;4.05;2.80;;;;;;;11.24;84.57;97088.47;10457855;28;20530;-69
2023/05/15 05:44:05;;;;;;;4.45;3.00;;;;;;;11.31;84.37;97093.06;10442483;28;20065;-68
2023/05/15 05:49:25;;;;;;;4.65;2.67;;;;;;;11.53;84.82;97083.06;10442427;28;20166;-69
2023/05/15 05:54:46;;;;;;;3.72;2.55;;;;;;;11.76;84.58;97074.50;10428570;28;20133;-68
2023/05/15 06:00:09;;;;;;;3.08;2.20;;;;;;;12.00;84.28;97077.84;10414628;28;20564;-69
2023/05/15 06:05:30;;;;;;;4.90;2.90;;;;;;;12.11;84.01;97067.91;10457362;28;20124;-68
2023/05/15 06:10:51;;;;;;;3.25;2.25;;;;;;;12.13;83.66;97073.59;10441811;28;20116;-68
2023/05/15 06:16:12;;;;;;;2.80;1.88;;;;;;;12.07;83.48;97069.78;10428012;28;20084;-68
2023/05/15 06:21:33;;;;;;;2.38;2.00;;;;;;;12.19;83.56;97071.13;10427776;28;20167;-69
2023/05/15 06:26:54;;;;;;;3.58;1.80;;;;;;;12.32;83.25;97070.38;10460347;28;20045;-68
2023/05/15 06:32:14;;;;;;;7.00;2.85;;;;;;;12.37;82.96;97067.78;10449986;28;20442;-68
2023/05/15 06:37:35;;;;;;;2.65;1.58;;;;;;;12.36;83.00;97064.28;10464553;28;20125;-68
2023/05/15 06:42:56;;;;;;;2.65;1.73;;;;;;;12.46;82.94;97069.66;10449580;28;20044;-68
2023/05/15 06:48:17;;;;;;;2.60;1.95;;;;;;;12.63;82.62;97066.25;10464092;28;20115;-68
2023/05/15 06:53:38;;;;;;;2.92;1.80;;;;;;;13.00;82.07;97068.75;10449346;28;20117;-69
2023/05/15 06:58:58;;;;;;;3.40;2.00;;;;;;;13.20;81.31;97062.66;10463851;28;20105;-69
2023/05/15 07:04:19;;;;;;;3.05;1.70;;;;;;;13.68;81.16;97066.94;10463720;28;20080;-69
2023/05/15 07:09:41;;;;;;;2.50;1.73;;;;;;;13.94;80.24;97062.50;10463520;28;20055;-69
2023/05/15 07:15:01;;;;;;;4.95;1.75;;;;;;;14.04;79.63;97060.13;10463182;28;20064;-68
2023/05/15 07:20:22;;;;;;;3.47;2.00;;;;;;;14.45;79.39;97059.06;10463270;28;20083;-69
2023/05/15 07:25:45;;;;;;;4.75;1.80;;;;;;;14.56;78.59;97058.13;10448237;28;20116;-69
2023/05/15 07:31:06;;;;;;;4.63;2.10;;;;;;;14.21;78.09;97055.22;10420466;28;20163;-69
2023/05/15 07:36:27;;;;;;;3.00;2.00;;;;;;;14.67;78.57;97056.47;10447150;28;20121;-69
2023/05/15 07:41:47;;;;;;;4.55;1.83;;;;;;;15.32;77.26;97058.28;10447327;28;20068;-68
2023/05/15 07:47:08;;;;;;;3.58;1.88;;;;;;;15.54;75.67;97061.94;10447347;28;20068;-69
2023/05/15 07:52:28;;;;;;;4.38;1.63;;;;;;;15.81;75.48;97062.91;10461723;28;20116;-69
2023/05/15 07:57:49;;;;;;;3.60;1.73;;;;;;;16.08;74.43;97062.47;10461766;28;20116;-69
2023/05/15 08:03:13;;;;;;;3.80;1.80;;;;;;;16.31;73.32;97061.91;10461550;28;20083;-68
2023/05/15 08:08:34;;;;;;;2.58;1.38;;;;;;;16.43;73.03;97055.22;10446146;28;20065;-68
2023/05/15 08:13:55;;;;;;;3.15;1.30;;;;;;;16.72;71.67;97060.47;10446107;28;20543;-69
2023/05/15 08:19:16;;;;;;;2.60;1.30;;;;;;;17.13;70.73;97067.38;10446153;28;20068;-69
2023/05/15 08:24:37;;;;;;;2.63;1.35;;;;;;;17.26;70.03;97072.00;10460439;28;20506;-68
2023/05/15 08:29:59;;;;;;;2.10;1.38;;;;;;;17.63;69.35;97075.94;10460803;28;20120;-69
2023/05/15 08:35:19;;;;;;;3.17;1.33;;;;;;;17.63;68.10;97073.09;10445428;28;20171;-68
2023/05/15 08:40:40;;;;;;;3.13;1.55;;;;;;;17.79;68.10;97073.63;10459879;28;20140;-69
2023/05/15 08:46:01;;;;;;;2.67;1.52;;;;;;;18.14;66.37;97069.63;10444885;28;20044;-68
2023/05/15 08:51:22;;;;;;;1.33;1.02;;;;;;;18.53;65.78;97081.97;10443568;28;20593;-68
2023/05/15 08:56:43;;;;;;;2.83;1.10;;;;;;;18.63;64.95;97087.16;10430753;28;20115;-68
2023/05/15 09:02:04;;;;;;;4.60;1.55;;;;;;;18.24;64.00;97086.16;10430051;28;20128;-68
2023/05/15 09:07:25;;;;;;;2.80;1.20;;;;;;;17.64;64.29;97091.47;10444086;28;20061;-68
2023/05/15 09:12:45;;;;;;;3.13;1.40;;;;;;;17.31;64.22;97089.78;10443912;28;20402;-68
2023/05/15 09:18:06;;;;;;;2.92;1.80;;;;;;;17.14;64.51;97088.56;10443456;28;20123;-68
2023/05/15 09:23:27;;;;;;;2.65;1.70;;;;;;;17.10;64.20;97085.63;10429638;28;20136;-67
2023/05/15 09:28:48;;;;;;;2.33;1.70;;;;;;;17.03;64.31;97093.16;10429149;28;20037;-67
2023/05/15 09:34:09;;;;;;;2.80;1.55;;;;;;;16.71;63.92;97092.13;10458368;28;20068;-68
2023/05/15 09:39:30;;;;;;;2.88;1.75;;;;;;;16.34;64.08;97098.56;10457371;28;20064;-69
2023/05/15 09:44:50;;;;;;;2.80;2.05;;;;;;;16.23;64.66;97109.50;10457593;28;20132;-68
2023/05/15 09:50:12;;;;;;;4.07;1.70;;;;;;;16.33;64.80;97116.84;10442522;28;20041;-68
2023/05/15 09:55:33;;;;;;;5.40;1.83;;;;;;;16.55;64.61;97117.63;10428401;28;20037;-68
2023/05/15 10:00:54;;;;;;;5.88;1.85;;;;;;;17.00;64.29;97107.84;10428155;28;20076;-68
2023/05/15 10:06:16;;;;;;;6.18;1.80;;;;;;;17.88;63.77;97102.78;10456692;28;20068;-68
2023/05/15 10:11:42;;;;;;;4.05;1.52;;;;;;;18.42;62.11;97100.75;10428024;28;20061;-68
2023/05/15 10:17:02;;;;;;;3.17;1.20;;;;;;;20.09;61.08;97103.97;10428181;28;20064;-68
2023/05/15 10:22:23;;;;;;;2.58;1.02;;;;;;;22.07;57.24;97099.44;10441429;28;20045;-68
2023/05/15 10:27:44;;;;;;;2.60;1.42;;;;;;;23.19;54.45;97097.72;10427495;28;20119;-68
2023/05/15 10:33:05;;;;;;;2.70;1.63;;;;;;;23.49;52.57;97100.78;10441308;28;20060;-68
2023/05/15 10:38:26;;;;;;;3.05;1.05;;;;;;;24.02;50.47;97106.06;10427736;28;20047;-68
2023/05/15 10:43:48;;;;;;;3.13;1.33;;;;;;;24.44;49.24;97097.00;10427232;28;20167;-68
2023/05/15 10:49:08;;;;;;;3.25;1.30;;;;;;;24.69;45.02;97094.91;10427160;28;20041;-68
2023/05/15 10:54:29;;;;;;;2.30;1.30;;;;;;;24.75;45.67;97092.78;10426986;28;20067;-68
2023/05/15 10:59:50;;;;;;;4.40;1.00;;;;;;;24.32;44.74;97091.25;10440589;28;20059;-67
2023/05/15 11:05:12;;;;;;;3.72;1.20;;;;;;;23.99;44.25;97086.13;10455306;28;20049;-68
2023/05/15 11:10:33;;;;;;;1.77;1.10;;;;;;;24.15;43.42;97082.63;10440677;28;20037;-68
2023/05/15 11:15:56;;;;;;;2.85;1.33;;;;;;;23.61;43.02;97080.94;10448166;28;20044;-67
2023/05/15 11:21:16;;;;;;;2.22;1.27;;;;;;;23.21;43.34;97072.13;10462825;28;20466;-68
2023/05/15 11:26:41;;;;;;;1.60;1.17;;;;;;;22.96;43.30;97063.38;10447815;28;20069;-68
2023/05/15 11:32:02;;;;;;;2.58;1.23;;;;;;;23.18;43.09;97056.44;10434883;28;20087;-67
2023/05/15 11:37:23;;;;;;;5.50;1.42;;;;;;;23.62;42.07;97056.00;10419925;28;20041;-68
2023/05/15 11:43:07;;;;;;;3.15;1.20;;;;;;;24.02;40.96;97060.47;10461970;28;20056;-68
2023/05/15 11:48:32;;;;;;;2.22;1.40;;;;;;;23.75;40.64;97062.50;10462043;28;20435;-68
2023/05/15 11:53:54;;;;;;;3.15;1.20;;;;;;;23.72;40.45;97049.66;10461615;28;20052;-68
2023/05/15 11:59:15;;;;;;;2.27;1.13;;;;;;;23.22;38.47;97040.09;10446312;28;20124;-67
2023/05/15 12:04:35;;;;;;;1.42;1.10;;;;;;;23.32;38.85;97042.28;10446212;28;20139;-67
2023/05/15 12:09:57;;;;;;;2.38;1.27;;;;;;;24.01;38.69;97039.81;10432578;28;20049;-68
2023/05/15 12:15:18;;;;;;;1.83;1.10;;;;;;;24.44;36.44;97034.97;10460688;28;20549;-68
2023/05/15 12:20:48;;;;;;;2.88;1.38;;;;;;;24.52;36.42;97020.00;10445894;28;20051;-67
2023/05/15 12:26:09;;;;;;;3.53;1.38;;;;;;;23.24;36.47;97008.06;10432905;28;20044;-68
2023/05/15 12:31:33;;;;;;;3.73;1.30;;;;;;;22.96;37.59;97015.00;10445423;28;20079;-68
2023/05/15 12:36:54;;;;;;;3.40;1.85;;;;;;;22.90;38.55;97012.13;10445147;28;20072;-68
2023/05/15 12:42:16;;;;;;;5.27;2.17;;;;;;;23.64;37.88;97010.44;10444850;28;20041;-68
2023/05/15 12:47:40;;;;;;;3.05;2.08;;;;;;;23.66;37.47;97011.19;10459858;28;20037;-68
2023/05/15 12:53:03;;;;;;;4.73;2.23;;;;;;;23.95;37.20;97006.31;10417065;28;20064;-67
2023/05/15 12:58:25;;;;;;;3.65;1.77;;;;;;;24.31;36.80;96992.84;10459032;28;20044;-68
2023/05/15 13:03:47;;;;;;;2.50;1.95;;;;;;;24.49;35.32;96987.19;10444467;28;20136;-68
2023/05/15 13:09:08;;;;;;;3.13;2.03;;;;;;;24.56;35.46;96997.19;10443705;28;20043;-67
2023/05/15 13:14:33;;;;;;;3.85;1.92;;;;;;;24.45;34.65;96984.34;10443579;28;20065;-68
2023/05/15 13:19:55;;;;;;;2.55;2.00;;;;;;;23.82;35.09;96987.00;10443671;28;20102;-67
2023/05/15 13:25:17;;;;;;;4.90;2.50;;;;;;;23.21;35.40;96989.56;10443512;28;20045;-67
2023/05/15 13:30:40;;;;;;;3.03;1.95;;;;;;;22.36;35.97;97003.81;10443053;28;20048;-67
2023/05/15 13:36:02;;;;;;;3.75;1.80;;;;;;;21.37;36.76;96995.56;10442223;28;20061;-67
2023/05/15 13:41:23;;;;;;;2.75;1.00;;;;;;;20.66;36.93;96989.56;10457777;28;20044;-67
2023/05/15 13:46:43;;;;;;;1.17;0.85;;;;;;;20.27;37.18;96982.50;10442379;28;20041;-67
2023/05/15 13:52:04;;;;;;;2.03;1.05;;;;;;;20.75;37.33;96982.59;10457100;28;20069;-67
2023/05/15 13:57:25;;;;;;;2.80;1.30;;;;;;;21.57;36.42;96975.22;10441960;28;20079;-67
2023/05/15 14:02:46;;;;;;;2.65;1.58;;;;;;;21.96;35.55;96979.94;10442291;28;20490;-68
2023/05/15 14:08:08;;;;;;;3.40;1.50;;;;;;;21.97;35.48;96984.22;10456575;28;20045;-67
2023/05/15 14:13:30;;;;;;;4.88;1.90;;;;;;;21.95;35.37;96981.34;10456364;28;20048;-68
2023/05/15 14:18:52;;;;;;;2.77;1.80;;;;;;;21.71;35.80;96981.06;10441932;28;20065;-68
2023/05/15 14:24:13;;;;;;;2.70;1.80;;;;;;;21.68;36.17;96988.16;10427809;28;20041;-67
2023/05/15 14:29:34;;;;;;;5.15;1.75;;;;;;;21.69;35.98;96989.56;10456327;28;20041;-67
2023/05/15 14:34:58;;;;;;;2.97;1.90;;;;;;;21.74;35.86;96993.91;10440997;28;20041;-67
2023/05/15 14:40:19;;;;;;;2.40;1.23;;;;;;;21.68;35.73;96999.50;10456100;28;20055;-67
2023/05/15 14:45:40;;;;;;;4.30;1.30;;;;;;;21.52;35.36;96994.34;10440752;28;20041;-67
2023/05/15 14:51:02;;;;;;;2.03;1.13;;;;;;;21.20;34.98;96988.91;10448995;28;20110;-67
2023/05/15 14:56:22;;;;;;;3.45;1.90;;;;;;;20.73;35.28;96985.38;10435476;28;20063;-67
2023/05/15 15:01:44;;;;;;;1.48;1.10;;;;;;;20.61;35.56;96995.84;10418856;28;20100;-67
2023/05/15 15:07:05;;;;;;;3.30;2.10;;;;;;;20.59;35.52;96988.00;10434712;28;20391;-67
2023/05/15 15:12:26;;;;;;;4.95;1.92;;;;;;;20.51;35.67;97004.88;10434988;28;20041;-67
2023/05/15 15:17:47;;;;;;;2.75;1.65;;;;;;;20.37;35.60;97007.47;10463168;28;20048;-67
2023/05/15 15:23:08;;;;;;;3.97;1.65;;;;;;;20.30;35.73;97010.19;10463253;28;20045;-67
2023/05/15 15:28:32;;;;;;;5.43;1.65;;;;;;;20.26;35.94;97015.03;10434623;28;20450;-68
2023/05/15 15:33:53;;;;;;;5.57;2.20;;;;;;;20.08;36.19;97012.63;10420877;28;20055;-68
2023/05/15 15:39:15;;;;;;;3.47;2.28;;;;;;;19.92;36.77;97013.00;10462550;28;20041;-67
2023/05/15 15:44:36;;;;;;;2.88;2.00;;;;;;;19.80;37.54;97012.78;10447469;28;20078;-67
2023/05/15 15:49:57;;;;;;;3.50;2.83;;;;;;;19.87;37.60;97010.78;10446825;28;20061;-68
2023/05/15 15:55:18;;;;;;;3.47;2.35;;;;;;;19.83;37.97;96999.38;10433248;28;20037;-67
2023/05/15 16:00:40;;;;;;;4.47;3.45;;;;;;;19.81;38.18;97007.84;10432258;28;20044;-67
2023/05/15 16:06:01;;;;;;;3.33;2.40;;;;;;;19.67;38.53;97002.59;10433105;28;20056;-67
2023/05/15 16:11:22;;;;;;;4.10;1.90;;;;;;;19.62;38.20;96992.59;10446486;28;20095;-67
2023/05/15 16:16:43;;;;;;;5.72;2.40;;;;;;;19.69;38.52;96997.00;10446066;28;20482;-67
2023/05/15 16:22:05;;;;;;;2.67;2.10;;;;;;;19.79;38.62;97002.13;10432444;28;20045;-68
2023/05/15 16:27:26;;;;;;;4.28;2.42;;;;;;;19.77;38.84;97010.56;10431744;28;20048;-67
2023/05/15 16:32:47;;;;;;;4.22;2.33;;;;;;;19.35;39.66;97008.28;10460334;28;20102;-67
2023/05/15 16:38:08;;;;;;;3.70;2.30;;;;;;;18.97;40.20;97014.50;10445117;28;20498;-67
2023/05/15 16:43:30;;;;;;;5.57;2.35;;;;;;;18.73;40.86;97005.47;10459651;28;20056;-67
2023/05/15 16:48:51;;;;;;;4.10;2.33;;;;;;;18.53;41.88;97011.31;10445120;28;20055;-67
2023/05/15 16:54:14;;;;;;;6.25;2.67;;;;;;;18.25;42.75;97009.22;10459117;28;20123;-67
2023/05/15 16:59:35;;;;;;;4.75;2.60;;;;;;;18.02;43.77;97007.91;10444672;28;20124;-67
2023/05/15 17:04:56;;;;;;;4.72;2.60;;;;;;;17.85;44.59;97025.78;10443689;28;20057;-67
2023/05/15 17:10:17;;;;;;;3.78;2.50;;;;;;;17.81;45.34;97022.84;10443109;28;20525;-66
2023/05/15 17:15:37;;;;;;;4.18;2.58;;;;;;;17.80;45.94;97037.63;10413798;28;20498;-67
2023/05/15 17:20:58;;;;;;;3.80;2.75;;;;;;;17.58;46.15;97024.31;10443267;28;20552;-67
2023/05/15 17:26:20;;;;;;;7.15;2.33;;;;;;;17.39;47.38;97039.28;10458323;28;20475;-66
2023/05/15 17:31:41;;;;;;;4.88;2.92;;;;;;;17.20;47.28;97038.00;10443074;28;20051;-69
2023/05/15 17:37:02;;;;;;;3.70;2.78;;;;;;;17.13;47.73;97042.72;10442980;28;20086;-67
2023/05/15 17:42:27;;;;;;;4.40;2.97;;;;;;;16.94;48.26;97042.81;10428892;28;20395;-67
2023/05/15 17:47:48;;;;;;;3.55;2.50;;;;;;;16.78;48.75;97060.63;10442937;28;20148;-67
2023/05/15 17:53:08;;;;;;;3.60;2.80;;;;;;;16.60;49.65;97074.84;10428420;28;20069;-68
2023/05/15 17:58:29;;;;;;;3.65;2.20;;;;;;;16.49;49.62;97069.50;10457165;28;20041;-67
2023/05/15 18:03:50;;;;;;;3.47;2.38;;;;;;;16.48;50.25;97073.69;10442305;28;20076;-68
2023/05/15 18:09:10;;;;;;;4.57;2.53;;;;;;;16.35;51.32;97083.84;10442083;28;20045;-68
2023/05/15 18:14:31;;;;;;;4.82;2.67;;;;;;;16.13;51.09;97089.41;10442071;28;20159;-67
2023/05/15 18:19:51;;;;;;;4.75;2.53;;;;;;;15.88;51.98;97113.16;10427818;28;20091;-67
2023/05/15 18:25:12;;;;;;;3.85;2.78;;;;;;;15.65;52.50;97111.59;10456494;28;20498;-68
2023/05/15 18:30:33;;;;;;;6.03;2.97;;;;;;;15.42;52.76;97115.63;10456157;28;20573;-68
2023/05/15 18:35:54;;;;;;;3.80;3.00;;;;;;;15.24;53.87;97123.34;10441480;28;20539;-67
2023/05/15 18:41:15;;;;;;;6.38;3.38;;;;;;;15.06;54.34;97131.06;10456389;28;20076;-68
2023/05/15 18:46:36;;;;;;;5.07;3.72;;;;;;;14.97;54.48;97134.91;10456254;28;20175;-67
2023/05/15 18:51:57;;;;;;;5.78;3.88;;;;;;;14.87;54.74;97143.66;10441315;28;20116;-68
2023/05/15 18:57:18;;;;;;;7.88;3.55;;;;;;;14.82;55.88;97148.38;10456456;28;20060;-68
2023/05/15 19:02:39;;;;;;;4.10;3.10;;;;;;;14.73;56.12;97154.28;10427413;28;20081;-68
2023/05/15 19:08:00;;;;;;;5.50;3.30;;;;;;;14.59;56.21;97155.16;10440772;28;20065;-68
2023/05/15 19:13:21;;;;;;;7.22;3.00;;;;;;;14.47;57.39;97165.13;10440773;28;20064;-68
2023/05/15 19:18:42;;;;;;;6.07;2.80;;;;;;;14.38;57.71;97175.28;10455713;28;20072;-67
2023/05/15 19:24:03;;;;;;;3.95;3.03;;;;;;;14.31;58.61;97181.97;10440523;28;20125;-67
2023/05/15 19:29:24;;;;;;;4.70;2.80;;;;;;;14.23;58.79;97170.38;10440537;28;20064;-67
2023/05/15 19:34:45;;;;;;;3.83;3.00;;;;;;;14.13;59.59;97173.47;10459691;28;20080;-67
2023/05/15 19:40:06;;;;;;;5.20;2.85;;;;;;;14.12;59.89;97168.50;10433863;28;20120;-68
2023/05/15 19:45:28;;;;;;;5.20;3.05;;;;;;;14.09;60.20;97184.53;10462185;28;20125;-68
2023/05/15 19:50:49;;;;;;;4.65;2.90;;;;;;;13.98;60.80;97169.28;10462219;28;20166;-68
2023/05/15 19:56:12;;;;;;;3.42;2.63;;;;;;;13.89;60.95;97173.09;10461853;28;20041;-67
2023/05/15 20:01:33;;;;;;;4.53;3.35;;;;;;;13.78;62.15;97179.59;10446835;28;20511;-68
2023/05/15 20:06:54;;;;;;;5.07;3.03;;;;;;;13.70;62.36;97177.16;10461701;28;20076;-68
2023/05/15 20:12:15;;;;;;;4.50;2.85;;;;;;;13.59;62.35;97182.91;10461674;28;20455;-68
2023/05/15 20:17:35;;;;;;;5.93;3.20;;;;;;;13.46;62.67;97187.94;10461164;28;20071;-68
2023/05/15 20:22:56;;;;;;;7.82;3.15;;;;;;;13.36;64.03;97197.97;10445879;28;20135;-68
2023/05/15 20:28:17;;;;;;;3.25;2.55;;;;;;;13.26;63.40;97195.41;10461257;28;20048;-68
2023/05/15 20:33:37;;;;;;;4.82;3.05;;;;;;;13.17;63.74;97199.13;10445391;28;20044;-67
2023/05/15 20:39:01;;;;;;;6.05;2.78;;;;;;;13.09;64.18;97198.72;10445745;28;20112;-67
2023/05/15 20:44:21;;;;;;;6.63;3.00;;;;;;;13.03;64.63;97195.66;10459086;28;20056;-67
2023/05/15 20:49:42;;;;;;;4.15;3.03;;;;;;;12.97;64.65;97193.25;10460323;28;20129;-67
2023/05/15 20:55:06;;;;;;;4.95;3.22;;;;;;;12.91;65.20;97192.94;10459729;28;20041;-67
2023/05/15 21:00:26;;;;;;;7.65;3.33;;;;;;;12.85;65.36;97195.47;10459316;28;20127;-68
2023/05/15 21:05:48;;;;;;;4.30;3.63;;;;;;;12.77;65.28;97197.88;10444605;28;20084;-67
2023/05/15 21:11:08;;;;;;;3.95;3.15;;;;;;;12.69;65.65;97186.25;10458794;28;20041;-67
2023/05/15 21:16:29;;;;;;;5.82;3.25;;;;;;;12.66;65.99;97190.31;10443756;28;20118;-67
2023/05/15 21:21:50;;;;;;;5.53;3.33;;;;;;;12.59;66.40;97200.47;10443741;28;20152;-68
2023/05/15 21:27:10;;;;;;;5.38;3.75;;;;;;;12.56;66.14;97196.13;10443480;28;20140;-68
2023/05/15 21:32:31;;;;;;;7.05;3.83;;;;;;;12.50;65.94;97210.50;10458230;28;20463;-67
2023/05/15 21:37:52;;;;;;;6.68;3.67;;;;;;;12.44;66.10;97206.66;10457818;28;20371;-68
2023/05/15 21:43:12;;;;;;;5.78;3.60;;;;;;;12.35;66.44;97199.19;10443562;28;20072;-68
2023/05/15 21:48:34;;;;;;;5.38;3.47;;;;;;;12.32;66.47;97203.97;10457444;28;20117;-67
2023/05/15 21:53:54;;;;;;;5.57;3.65;;;;;;;12.30;66.05;97204.59;10428707;28;20117;-68
2023/05/15 21:59:15;;;;;;;7.47;3.95;;;;;;;12.27;66.15;97205.84;10441803;28;20064;-68
2023/05/15 22:04:35;;;;;;;5.72;3.90;;;;;;;12.21;66.16;97208.31;10428311;28;20148;-67
2023/05/15 22:09:56;;;;;;;6.40;3.80;;;;;;;12.18;65.86;97203.97;10442196;28;20497;-66
2023/05/15 22:15:17;;;;;;;7.85;3.83;;;;;;;12.15;65.92;97210.78;10441809;28;20124;-67
2023/05/15 22:20:38;;;;;;;7.45;3.90;;;;;;;12.11;66.02;97218.97;10456676;28;20065;-67
2023/05/15 22:25:59;;;;;;;8.63;3.72;;;;;;;12.05;65.88;97224.25;10441569;28;20075;-67
2023/05/15 22:31:21;;;;;;;4.95;3.97;;;;;;;12.00;65.90;97233.78;10441566;28;20469;-68
2023/05/15 22:36:42;;;;;;;5.20;3.72;;;;;;;11.97;65.93;97232.94;10427628;28;20072;-67
2023/05/15 22:42:06;;;;;;;5.55;3.88;;;;;;;11.97;66.11;97246.19;10442182;28;20109;-68
2023/05/15 22:47:27;;;;;;;6.82;3.78;;;;;;;11.91;66.29;97251.47;10456268;28;20124;-68
2023/05/15 22:52:48;;;;;;;9.05;3.88;;;;;;;11.88;66.27;97250.63;10455912;28;20068;-68
2023/05/15 22:58:08;;;;;;;9.93;3.88;;;;;;;11.82;66.18;97258.69;10441036;28;20052;-68
2023/05/15 23:03:29;;;;;;;6.38;3.80;;;;;;;11.79;66.18;97259.88;10427373;28;20064;-68
2023/05/15 23:08:50;;;;;;;6.78;3.90;;;;;;;11.75;66.30;97260.38;10430454;28;20120;-68
2023/05/15 23:14:11;;;;;;;5.65;3.65;;;;;;;11.71;66.43;97267.81;10463449;28;20048;-68
2023/05/15 23:19:32;;;;;;;7.70;3.53;;;;;;;11.64;66.58;97266.03;10448459;28;20499;-67
2023/05/15 23:24:52;;;;;;;6.97;3.50;;;;;;;11.63;66.52;97267.38;10448382;28;20447;-68
2023/05/15 23:30:14;;;;;;;7.05;3.60;;;;;;;11.59;66.88;97270.69;10463100;28;20120;-67
2023/05/15 23:35:34;;;;;;;5.50;3.67;;;;;;;11.57;66.72;97270.53;10434472;28;20113;-68
2023/05/15 23:40:55;;;;;;;6.18;4.00;;;;;;;11.54;66.61;97280.16;10447543;28;20123;-67
2023/05/15 23:46:16;;;;;;;6.05;3.30;;;;;;;11.48;66.66;97268.63;10447531;28;20069;-67
2023/05/15 23:51:37;;;;;;;7.75;4.43;;;;;;;11.47;66.79;97253.22;10447212;28;20133;-67
2023/05/15 23:56:58;;;;;;;4.95;3.50;;;;;;;11.45;66.71;97261.47;10433502;28;20112;-67
